Date,TemperatureHighF,TemperatureAvgF,TemperatureLowF,DewpointHighF,DewpointAvgF,DewpointLowF,HumidityHigh,HumidityAvg,HumidityLow,PressureMaxIn,PressureMinIn,WindSpeedMaxMPH,WindSpeedAvgMPH,GustSpeedMaxMPH,PrecipitationSumIn
2013-1-1,34.0,27.7,12.0,26.5,15.5,1.1,83,61,43,29.58,29.29,15,4,20,0.07
2013-1-2,25.0,13.7,2.0,15.6,5.0,-8.3,85,68,52,29.83,29.55,12,3,16,0.00
2013-1-3,23.0,8.9,-3.0,8.3,-4.3,-9.8,76,56,31,29.91,29.68,10,2,12,0.00
2013-1-4,35.0,26.6,13.0,23.3,18.8,7.2,93,73,57,29.68,29.43,16,5,20,0.00
2013-1-5,39.0,30.5,19.0,24.6,18.9,13.0,79,63,42,29.94,29.46,10,3,19,0.09
2013-1-6,40.0,29.7,20.0,28.4,24.0,14.2,94,80,61,29.90,29.57,10,3,13,0.14
2013-1-7,37.0,29.5,21.0,28.5,20.3,9.2,94,70,40,30.09,29.61,12,2,14,0.07
2013-1-8,42.0,31.8,21.0,26.8,23.6,17.2,93,73,50,30.03,29.88,12,4,16,0.21
2013-1-9,42.0,32.9,21.0,34.6,26.0,19.3,93,76,54,30.10,29.61,11,3,20,0.15
2013-1-10,45.0,38.4,29.0,28.6,24.7,22.4,79,58,44,30.20,29.63,13,4,26,0.06
2013-1-11,37.0,31.0,24.0,31.7,25.4,21.8,95,80,64,30.19,29.90,5,1,6,0.08
2013-1-12,40.0,38.6,38.0,39.0,37.6,37.0,96,96,96,29.81,29.76,6,2,7,0.11
2013-1-13,48.0,42.6,37.0,47.2,41.7,36.0,97,96,96,29.79,29.59,12,3,12,0.01
2013-1-14,60.0,46.8,37.0,51.6,39.0,25.2,97,77,43,29.91,29.46,11,3,16,0.00
2013-1-15,42.0,33.4,27.0,27.4,24.2,20.8,89,69,51,29.98,29.89,6,0,8,0.00
2013-1-16,31.0,29.2,26.0,29.7,26.7,21.4,95,91,74,29.92,29.49,5,0,7,0.00
2013-1-17,39.0,30.0,24.0,34.2,23.8,7.6,95,79,49,29.78,29.49,13,2,18,0.37
2013-1-18,24.0,16.6,7.0,9.3,-0.4,-5.4,62,47,32,30.13,29.74,12,2,16,0.00
2013-1-19,44.0,31.9,16.0,30.1,18.7,4.9,79,59,45,30.06,29.51,17,5,24,0.16
2013-1-20,51.0,37.0,24.0,32.4,23.5,9.4,79,59,30,29.59,29.13,20,7,30,0.13
2013-1-21,24.0,20.1,16.0,18.3,7.5,-0.2,93,60,44,29.77,29.49,12,4,26,0.00
2013-1-22,22.0,16.1,5.0,16.3,10.2,-2.9,93,79,43,29.79,29.46,16,2,17,0.00
2013-1-23,13.0,4.7,-3.0,1.0,-11.2,-17.2,76,48,30,29.86,29.75,14,3,19,0.00
2013-1-24,16.0,4.7,-8.0,-6.9,-11.8,-15.6,73,47,31,29.94,29.75,14,3,18,0.00
2013-1-25,19.0,9.7,1.0,9.1,-7.2,-11.7,84,47,29,30.01,29.77,11,3,15,0.00
2013-1-26,22.0,11.8,5.0,10.4,3.5,-8.4,93,72,33,29.92,29.71,12,2,14,0.00
2013-1-27,29.0,19.9,9.0,2.5,-1.8,-5.9,72,39,27,30.14,30.01,11,3,12,0.00
2013-1-28,27.0,22.1,13.0,20.3,10.8,0.3,93,65,38,30.10,29.73,8,1,13,0.00
2013-1-29,33.0,29.6,21.0,29.7,27.4,19.3,95,92,82,29.85,29.79,5,1,7,0.13
2013-1-30,57.0,40.9,30.0,56.4,39.9,28.7,98,96,95,29.82,29.05,15,3,17,0.20
2013-1-31,60.0,46.3,28.0,59.4,37.8,14.3,98,75,43,29.23,28.53,22,9,29,1.69
2013-2-1,31.0,24.3,18.0,15.0,8.3,1.6,68,51,37,29.76,29.27,16,6,22,0.00
2013-2-2,26.0,22.1,9.0,12.3,5.4,1.2,71,48,40,29.94,29.73,10,4,16,0.00
2013-2-3,25.0,19.9,13.0,21.3,17.3,11.3,93,90,63,29.74,29.47,7,1,12,0.01
2013-2-4,27.0,24.0,17.0,12.5,6.4,2.8,82,47,38,29.60,29.42,16,7,20,0.00
2013-2-5,28.0,22.8,16.0,17.3,11.1,5.3,92,61,45,29.72,29.63,6,1,8,0.00
2013-2-6,36.0,25.8,18.0,26.1,17.1,3.0,94,72,45,29.99,29.61,10,2,19,0.02
2013-2-7,29.0,21.7,8.0,3.5,-0.5,-4.5,62,38,29,30.22,29.99,9,1,13,0.00
2013-2-8,20.0,18.1,16.0,17.3,12.2,-0.4,93,80,40,30.19,29.64,8,2,12,0.00
2013-2-9,18.0,14.4,10.0,16.3,10.8,2.2,93,85,70,29.92,29.50,11,3,18,0.00
2013-2-10,40.0,21.0,7.0,14.9,1.4,-3.1,80,46,22,30.06,29.92,10,2,11,0.27
2013-2-11,30.0,21.8,18.0,28.7,11.0,1.6,95,64,46,29.99,29.37,6,1,7,0.00
2013-2-12,43.0,38.0,34.0,31.1,28.8,26.6,79,69,55,29.51,29.30,14,6,17,0.47
2013-2-13,41.0,31.1,22.0,27.2,23.2,19.4,93,73,50,29.55,29.40,9,2,13,0.04
2013-2-14,44.0,33.2,22.0,24.0,21.8,18.5,87,65,40,29.66,29.38,9,1,10,0.00
2013-2-15,44.0,29.8,25.0,32.0,24.9,20.6,95,83,61,29.67,29.59,9,3,11,0.00
2013-2-16,38.0,32.4,26.0,32.2,24.5,14.3,95,74,54,29.63,29.42,11,1,11,0.08
2013-2-17,26.0,18.2,13.0,15.6,7.9,-0.1,93,66,45,29.42,29.09,20,4,26,0.76
2013-2-18,28.0,18.7,10.0,3.0,-0.9,-4.4,62,44,26,29.84,29.37,16,6,25,0.94
2013-2-19,43.0,28.7,18.0,36.5,11.8,0.7,84,49,38,29.85,29.44,10,3,13,0.00
2013-2-20,32.0,27.7,23.0,20.2,14.6,11.2,66,58,48,29.45,29.28,16,7,24,0.27
2013-2-21,30.0,23.6,20.0,14.9,12.6,8.7,79,63,48,29.89,29.45,13,4,23,0.00
2013-2-22,40.0,29.4,19.0,25.2,19.3,14.5,93,68,41,30.07,29.89,9,2,12,0.00
2013-2-23,36.0,31.2,27.0,31.7,27.6,23.2,95,87,77,30.00,29.65,7,1,11,0.00
2013-2-24,33.0,30.7,28.0,31.7,29.4,26.5,95,95,94,29.59,29.39,6,1,9,0.15
2013-2-25,39.0,31.4,27.0,33.9,29.6,25.5,95,93,78,29.91,29.58,6,1,7,0.28
2013-2-26,42.0,32.9,28.0,34.9,29.5,26.5,95,88,67,29.99,29.85,8,1,9,0.15
2013-2-27,38.0,34.3,32.0,37.0,33.0,30.1,96,95,88,29.85,29.25,10,3,17,0.94
2013-2-28,46.0,37.1,31.0,37.0,34.0,29.7,96,89,68,29.30,29.18,7,2,11,0.12
2013-3-1,39.0,34.5,28.0,32.7,29.8,26.5,95,83,70,29.35,29.21,7,1,10,0.00
2013-3-2,42.0,34.3,27.0,32.2,27.6,24.7,91,77,63,29.35,29.27,7,2,11,0.00
2013-3-3,38.0,32.1,27.0,34.1,28.2,25.2,95,86,71,29.33,29.22,10,2,12,0.01
2013-3-4,38.0,30.5,27.0,28.9,24.4,21.7,95,78,56,29.43,29.24,13,4,18,0.00
2013-3-5,45.0,34.0,26.0,32.7,27.0,21.3,95,77,51,29.74,29.43,9,2,14,0.00
2013-3-6,36.0,33.1,29.0,33.9,31.5,27.5,95,94,77,29.81,29.73,10,3,15,0.12
2013-3-7,32.0,29.1,27.0,30.7,27.7,25.5,95,94,94,29.80,29.70,9,2,13,0.12
2013-3-8,41.0,31.9,27.0,31.2,25.0,19.9,95,78,46,29.84,29.65,4,0,8,0.22
2013-3-9,53.0,33.9,23.0,29.4,22.6,16.3,94,68,24,30.04,29.83,7,1,9,0.55
2013-3-10,46.0,33.0,22.0,36.0,28.0,20.3,95,83,56,30.10,29.96,7,1,9,0.01
2013-3-11,50.0,39.3,30.0,40.4,33.5,28.7,96,82,51,29.99,29.77,9,4,15,0.00
2013-3-12,53.0,46.4,40.0,51.2,45.4,39.0,97,96,91,29.80,29.34,9,3,17,0.40
2013-3-13,51.0,41.2,30.0,50.2,31.2,19.3,97,71,37,29.45,29.34,12,3,15,0.00
2013-3-14,35.0,28.0,18.0,23.9,15.5,5.9,82,60,44,29.54,29.37,16,5,19,0.00
2013-3-15,39.0,26.0,13.0,29.1,12.6,3.4,90,59,28,29.57,29.28,13,4,19,0.00
2013-3-16,37.0,29.2,20.0,26.8,13.8,8.0,84,54,33,29.59,29.34,9,2,14,0.00
2013-3-17,37.0,26.2,17.0,14.0,8.4,0.2,78,49,27,30.03,29.59,14,2,20,0.00
2013-3-18,37.0,24.6,11.0,25.5,6.1,-1.1,94,48,24,30.16,29.93,7,2,13,0.00
2013-3-19,32.0,28.8,23.0,30.7,27.4,21.3,95,94,93,29.94,29.33,7,2,16,0.01
2013-3-20,35.0,27.3,20.0,25.8,21.1,18.3,94,78,54,29.49,29.37,13,3,20,0.35
2013-3-21,41.0,28.5,18.0,26.5,18.4,13.0,94,69,34,29.49,29.27,7,2,10,0.31
2013-3-22,40.0,30.3,23.0,22.5,18.5,15.3,94,63,40,29.35,29.28,11,4,16,0.14
2013-3-26,37.0,34.5,32.0,22.5,21.8,20.5,65,60,54,29.45,29.43,7,1,7,0.00
2013-3-27,55.0,41.6,29.0,34.8,25.5,21.1,90,55,32,29.55,29.36,10,2,15,0.00
2013-3-28,48.0,40.4,32.0,38.1,32.7,29.2,96,76,48,29.66,29.55,6,1,10,0.02
2013-3-29,57.0,43.9,36.0,37.2,32.4,28.9,83,66,38,29.71,29.59,7,2,15,0.00
2013-3-30,58.0,44.9,34.0,33.7,23.7,12.7,88,49,20,29.76,29.62,12,2,16,0.00
2013-3-31,46.0,35.8,26.0,40.9,24.7,15.5,96,65,41,29.80,29.41,10,1,10,0.02
2013-4-1,59.0,43.7,32.0,44.4,35.0,10.7,97,74,36,29.45,29.11,16,4,24,0.33
2013-4-2,38.0,31.2,25.0,15.8,11.8,8.3,57,45,30,29.59,29.45,19,7,31,0.01
2013-4-3,45.0,34.1,26.0,14.8,10.7,6.0,56,39,21,29.81,29.56,17,6,25,0.00
2013-4-4,54.0,40.3,27.0,22.8,15.4,11.1,61,39,20,29.95,29.67,13,5,17,0.00
2013-4-5,61.0,44.1,34.0,29.8,25.1,16.7,78,51,19,29.67,29.25,12,4,16,0.00
2013-4-6,46.0,34.8,27.0,23.8,9.0,1.7,70,37,17,30.01,29.54,13,2,22,0.00
2013-4-7,55.0,41.1,25.0,39.5,23.7,5.7,84,52,27,30.01,29.59,19,4,23,0.00
2013-4-8,65.0,50.5,41.0,42.9,37.4,30.1,96,66,29,29.75,29.59,10,3,14,0.00
2013-4-9,70.0,52.9,42.0,50.9,43.1,39.2,97,72,38,29.72,29.45,11,2,18,0.02
2013-4-10,59.0,49.0,43.0,51.6,46.1,41.9,97,90,71,29.67,29.48,7,1,9,0.52
2013-4-11,51.0,44.4,38.0,46.2,38.4,25.6,97,81,45,29.81,29.48,9,1,10,0.12
2013-4-12,39.0,34.8,32.0,34.5,31.4,25.9,95,88,59,29.87,29.55,9,2,15,0.40
2013-4-16,57.0,55.6,55.0,0.0,0.0,0.0,87,85,80,29.69,29.65,20,9,20,0.01
2013-4-17,66.0,55.9,43.0,27.9,3.1,0.0,88,50,25,29.98,29.65,16,3,20,0.00
2013-4-18,61.0,49.3,33.0,43.1,31.3,25.5,84,53,33,30.09,29.78,19,3,20,0.00
2013-4-19,74.0,61.7,50.0,63.0,56.0,43.1,98,83,56,29.78,29.21,27,7,27,0.03
2013-4-20,66.0,51.0,40.0,63.5,39.2,22.3,98,68,37,29.86,29.20,25,5,25,0.48
2013-4-21,54.0,41.0,29.0,30.1,21.4,14.4,85,49,23,30.34,29.86,15,2,17,0.00
2013-4-22,52.0,39.7,27.0,33.8,28.8,22.0,95,69,33,30.40,30.28,15,2,15,0.00
2013-4-23,40.0,36.4,28.0,39.0,35.1,26.5,96,95,90,30.29,29.80,9,2,10,0.02
2013-4-24,74.0,55.6,39.0,52.2,43.4,34.2,97,69,25,29.80,29.34,19,4,19,0.04
2013-4-25,63.0,53.4,44.0,52.3,34.7,21.8,97,54,25,29.91,29.43,20,4,20,0.03
2013-4-26,61.0,48.3,36.0,39.0,31.8,24.6,96,55,36,30.08,29.91,12,2,12,0.00
2013-4-27,65.0,50.9,37.0,39.0,35.4,31.7,96,60,30,30.08,29.88,11,2,13,0.00
2013-4-28,70.0,53.2,36.0,43.1,35.9,28.9,96,57,26,29.97,29.81,13,2,13,0.00
2013-4-29,70.0,56.5,44.0,46.8,36.4,28.2,85,50,30,29.90,29.75,14,4,15,0.00
2013-4-30,70.0,56.7,44.0,34.9,28.2,17.5,64,36,20,30.02,29.86,12,2,12,0.00
2013-5-1,71.0,54.8,37.0,38.4,32.2,27.5,84,47,23,30.08,30.00,15,1,15,0.00
2013-5-2,78.0,54.7,38.0,44.7,37.8,31.1,96,57,23,30.16,29.90,13,2,15,0.00
2013-5-3,63.0,49.4,37.0,45.1,40.7,36.0,96,75,48,30.17,30.02,12,2,12,0.00
2013-5-4,63.0,49.3,35.0,46.5,38.0,24.9,97,70,27,30.02,29.91,12,2,12,0.00
2013-5-5,65.0,48.0,33.0,44.1,37.0,31.7,96,70,36,30.01,29.85,12,2,12,0.00
2013-5-6,72.0,51.4,34.0,49.6,41.0,29.6,97,74,24,29.94,29.72,10,2,10,0.00
2013-5-7,78.0,62.3,44.0,57.8,49.9,41.1,97,69,31,29.80,29.65,13,2,13,0.00
2013-5-8,74.0,62.0,52.0,61.9,57.4,51.2,98,86,57,29.81,29.67,18,2,18,0.02
2013-5-9,65.0,58.1,55.0,61.1,57.0,54.2,98,96,81,29.67,29.49,7,0,7,0.48
2013-5-10,77.0,68.3,55.0,61.7,56.5,52.2,98,69,45,29.57,29.46,9,2,11,0.01
2013-5-11,68.0,62.3,57.0,62.1,59.0,54.8,98,90,78,29.50,29.30,18,4,18,0.10
2013-5-12,69.0,58.7,46.0,59.4,48.3,27.5,98,72,40,29.44,29.15,16,3,17,0.07
2013-5-13,57.0,47.0,38.0,34.7,29.7,26.3,78,52,35,29.68,29.44,20,4,22,0.00
2013-5-14,59.0,47.1,34.0,37.7,31.7,25.6,94,59,31,29.69,29.58,15,2,15,0.00
2013-5-15,65.0,51.4,37.0,52.9,38.8,27.4,97,66,29,29.71,29.30,16,4,19,0.01
2013-5-16,78.0,64.6,47.0,52.2,41.1,29.6,97,51,20,29.43,29.18,23,5,24,0.05
2013-5-17,69.0,56.8,47.0,44.2,40.2,33.6,82,56,30,29.85,29.43,12,1,12,0.00
2013-5-18,72.0,57.2,43.0,50.1,42.2,32.6,97,62,26,29.92,29.80,10,1,11,0.00
2013-5-19,69.0,55.0,46.0,54.3,50.3,45.2,97,86,51,29.97,29.84,10,1,11,0.02
2013-5-20,79.0,69.5,57.0,65.7,62.2,56.4,98,80,56,29.66,29.47,13,2,13,0.31
2013-5-21,73.0,58.3,48.0,66.1,56.7,47.2,98,95,74,29.67,29.47,10,1,10,0.01
2013-5-22,60.0,55.3,48.0,59.4,54.4,47.2,98,97,94,29.59,29.51,7,1,8,1.20
2013-5-23,73.0,60.9,51.0,70.5,59.5,50.2,99,95,83,29.55,29.39,16,3,17,0.37
2013-5-24,69.0,61.9,48.0,67.2,59.3,47.2,99,91,77,29.46,29.28,10,2,10,1.36
2013-5-25,50.0,45.2,38.0,49.2,44.3,36.0,97,97,96,29.43,29.34,10,1,10,0.44
2013-5-26,57.0,47.8,37.0,45.3,40.2,36.0,97,76,58,29.73,29.36,12,2,15,0.07
2013-5-27,71.0,54.8,40.0,45.4,38.7,32.7,96,61,27,29.81,29.64,15,3,17,0.03
2013-5-28,71.0,58.2,44.0,52.4,42.8,35.9,97,61,30,29.87,29.75,11,1,11,0.01
2013-5-29,65.0,60.3,55.0,64.7,59.1,50.9,99,96,85,29.79,29.59,7,1,8,0.23
2013-5-30,86.0,77.2,63.0,68.7,63.9,58.6,99,66,42,29.64,29.53,14,3,14,0.04
2013-5-31,90.0,78.7,64.0,69.5,64.0,58.4,99,64,37,29.65,29.46,13,4,13,0.27
2013-6-1,89.0,79.3,70.0,68.8,63.6,54.3,83,62,33,29.53,29.38,15,4,15,0.00
2013-6-2,87.0,76.9,67.0,70.9,66.1,58.1,99,72,40,29.43,29.24,23,5,23,0.02
2013-6-3,77.0,67.6,56.0,68.2,60.7,46.7,99,81,49,29.44,29.31,13,3,15,0.01
2013-6-4,70.0,58.1,47.0,49.3,45.4,40.2,86,64,41,29.72,29.44,12,1,13,0.00
2013-6-5,72.0,60.5,48.0,52.6,47.5,41.0,97,66,37,29.78,29.66,12,2,12,0.00
2013-6-6,72.0,61.5,51.0,58.0,52.5,47.6,97,74,46,29.80,29.69,10,1,10,0.00
2013-6-7,56.0,53.2,50.0,55.2,52.4,49.2,97,97,97,29.73,29.55,8,0,8,0.00
2013-6-8,75.0,67.2,57.0,64.8,60.7,56.4,98,81,62,29.60,29.32,12,2,13,0.00
2013-6-9,77.0,66.1,56.0,59.9,56.1,50.9,98,73,43,29.75,29.60,15,2,15,0.00
2013-6-10,69.0,62.1,56.0,61.2,57.0,54.1,98,84,70,29.80,29.68,7,1,7,0.00
2013-6-11,60.0,56.3,53.0,59.1,55.5,52.2,98,97,94,29.56,29.21,8,0,9,0.00
2013-6-12,68.0,60.2,54.0,59.8,55.4,52.8,98,85,66,29.43,29.18,13,1,15,0.01
2013-6-13,66.0,57.3,51.0,60.1,54.5,50.2,98,91,65,29.44,29.34,10,2,10,0.00
2013-6-14,75.0,64.6,52.0,60.3,55.8,49.7,98,75,47,29.39,29.25,9,1,9,0.00
2013-6-15,77.0,65.1,53.0,55.4,48.8,39.6,92,60,30,29.53,29.39,12,2,13,0.00
2013-6-16,72.0,64.9,55.0,59.8,53.6,47.7,83,68,47,29.54,29.28,12,4,17,0.00
2013-6-17,81.0,66.7,56.0,63.4,59.5,55.2,98,81,45,29.51,29.33,15,3,17,0.00
2013-6-18,70.0,60.8,56.0,65.7,59.2,55.2,99,95,73,29.56,29.49,5,0,6,0.00
2013-6-19,75.0,65.6,55.0,61.1,51.4,43.3,98,62,38,29.76,29.57,10,1,11,0.00
2013-6-20,76.0,64.2,49.0,57.0,50.0,45.4,97,64,35,29.86,29.75,13,2,13,0.00
2013-6-21,64.0,59.7,57.0,58.3,56.5,54.7,96,89,78,29.84,29.81,7,4,9,0.00
2013-7-1,71.0,71.0,71.0,70.7,70.7,70.7,99,99,99,29.65,29.64,4,2,4,0.00
2013-7-2,80.0,71.0,62.0,75.1,69.7,61.4,99,96,79,29.77,29.69,9,2,10,0.00
2013-7-3,84.0,78.8,67.0,74.2,72.1,66.7,99,81,66,29.77,29.67,11,4,12,0.00
2013-7-4,88.0,79.8,71.0,74.8,72.3,68.8,99,80,57,29.76,29.63,12,4,13,0.00
2013-7-5,89.0,81.3,72.0,75.6,72.6,69.9,99,76,57,29.72,29.57,12,4,12,0.00
2013-7-6,86.0,79.2,72.0,74.2,69.6,61.5,98,74,51,29.65,29.53,12,3,15,0.00
2013-7-7,87.0,76.7,65.0,75.7,68.6,62.3,99,77,55,29.61,29.46,11,2,11,0.00
2013-7-8,82.0,75.1,70.0,74.7,71.4,67.9,99,89,75,29.59,29.49,7,1,9,0.00
2013-7-9,71.0,67.6,64.0,68.5,66.7,62.4,99,97,92,29.71,29.65,6,0,6,0.00
2013-7-10,80.0,68.7,63.0,76.8,67.6,62.4,99,97,83,29.67,29.36,10,1,10,0.00
2013-7-11,80.0,73.6,68.0,76.0,71.7,67.7,100,94,74,29.53,29.35,8,3,9,0.00
2013-7-12,76.0,68.2,61.0,65.7,60.6,54.1,99,79,51,29.81,29.55,9,1,10,0.00
2013-7-13,78.0,68.9,61.0,71.8,65.0,59.8,99,88,70,29.90,29.81,7,1,7,0.00
2013-7-14,88.0,76.7,68.0,77.3,71.7,67.7,99,86,55,29.88,29.75,9,1,9,0.00
2013-7-15,90.0,78.4,68.0,76.0,71.3,66.9,99,81,54,29.78,29.62,9,1,9,0.00
2013-7-16,91.0,78.2,67.0,74.6,69.4,65.4,97,76,50,29.75,29.64,6,0,7,0.00
2013-7-17,89.0,79.0,68.0,73.8,70.1,66.4,99,76,51,29.76,29.53,10,2,10,0.00
2013-7-18,91.0,79.3,72.0,76.5,71.2,66.4,99,78,47,29.57,29.49,8,1,10,0.00
2013-7-19,91.0,81.8,71.0,76.5,72.4,67.9,99,76,49,29.52,29.24,17,4,20,0.00
2013-7-20,88.0,79.7,71.0,74.7,68.6,61.9,87,69,53,29.39,29.19,16,4,16,0.00
2013-7-21,79.0,71.1,64.0,68.2,64.8,60.1,99,82,57,29.59,29.39,5,1,8,0.00
2013-7-22,80.0,70.4,64.0,71.3,67.2,63.4,99,90,69,29.61,29.49,7,0,8,0.00
2013-7-23,75.0,69.5,66.0,74.7,69.1,65.7,99,99,93,29.49,29.13,6,0,6,0.00
2013-7-24,82.0,72.5,60.0,72.4,66.5,50.9,99,83,59,29.59,29.17,7,1,15,0.00
2013-7-25,63.0,59.0,54.0,60.1,54.1,48.6,98,84,72,29.72,29.59,6,0,7,0.00
2013-7-26,70.0,66.2,63.0,67.9,65.1,62.4,99,96,87,29.59,29.53,7,1,7,0.00
2013-7-27,80.0,69.8,58.0,67.8,62.1,57.4,98,79,51,29.64,29.55,10,3,11,0.00
2013-7-28,80.0,69.6,62.0,71.5,66.5,61.4,99,91,72,29.62,29.53,9,1,9,0.00
2013-7-29,82.0,73.2,65.0,71.3,68.6,64.7,99,87,62,29.64,29.51,10,2,11,0.00
2013-7-30,80.0,68.7,58.0,64.7,60.1,54.2,99,76,44,29.69,29.59,10,1,12,0.00
2013-7-31,79.0,68.3,59.0,65.8,60.2,54.9,98,78,46,29.74,29.62,9,1,9,0.00
2013-8-1,79.0,67.7,59.0,66.8,63.0,58.4,99,87,55,29.65,29.47,13,2,13,0.00
2013-8-2,80.0,73.4,63.0,69.1,60.9,54.2,99,67,44,29.46,29.34,13,3,13,0.00
2013-8-3,78.0,68.3,61.0,64.3,59.6,52.4,96,75,44,29.46,29.33,12,3,13,0.00
2013-8-4,78.0,64.5,56.0,67.9,58.4,53.7,99,82,50,29.51,29.35,9,1,9,0.00
2013-8-5,73.0,61.4,52.0,57.0,48.8,38.5,97,68,35,29.67,29.51,11,1,12,0.00
2013-8-6,77.0,62.4,49.0,57.3,51.7,45.9,98,71,40,29.77,29.67,9,1,9,0.00
2013-8-7,77.0,65.3,53.0,62.7,55.7,49.2,98,75,39,29.80,29.68,12,2,12,0.00
2013-8-8,79.0,70.3,63.0,71.3,66.0,57.1,98,87,75,29.71,29.56,15,4,15,0.00
2013-8-9,73.0,70.4,69.0,72.7,70.1,68.7,99,99,97,29.60,29.31,8,3,11,0.00
2013-8-10,81.0,70.5,59.0,69.7,61.5,52.3,99,76,43,29.63,29.37,13,2,15,0.00
2013-8-11,77.0,65.2,53.0,62.0,55.7,50.3,97,74,42,29.69,29.57,9,1,10,0.00
2013-8-12,78.0,68.5,57.0,63.7,57.8,50.0,96,71,44,29.63,29.49,10,2,10,0.00
2013-8-13,72.0,66.4,62.0,68.8,64.5,60.6,99,94,78,29.51,29.28,9,1,9,0.00
2013-8-14,73.0,64.0,55.0,64.7,55.2,50.2,99,75,49,29.58,29.26,15,3,15,0.00
2013-8-15,74.0,62.2,51.0,57.8,52.2,47.9,97,73,43,29.72,29.58,13,2,13,0.00
2013-8-16,78.0,64.9,53.0,61.5,55.1,51.4,96,73,44,29.79,29.69,10,2,10,0.00
2013-8-17,80.0,66.0,54.0,63.4,58.1,53.2,98,78,43,29.89,29.79,7,1,7,0.00
2013-8-18,77.0,66.8,56.0,66.4,60.8,55.2,98,82,55,29.89,29.67,9,2,10,0.00
2013-8-19,80.0,69.1,59.0,63.9,61.3,58.4,98,78,52,29.67,29.51,10,3,11,0.00
2013-8-20,84.0,72.0,61.0,68.1,62.5,57.9,98,74,44,29.68,29.57,8,2,8,0.00
2013-8-21,85.0,73.2,61.0,66.7,63.4,60.4,99,74,47,29.73,29.59,10,2,10,0.00
2013-8-22,84.0,74.6,66.0,70.1,66.1,62.4,95,76,51,29.62,29.39,13,4,13,0.00
2013-8-23,83.0,70.2,58.0,69.4,58.3,47.9,98,69,37,29.75,29.41,7,0,7,0.00
2013-8-24,78.0,63.7,50.0,55.7,50.0,43.5,97,65,33,29.94,29.75,7,1,7,0.00
2013-8-25,81.0,64.4,52.0,59.0,53.5,48.1,97,73,33,29.97,29.80,10,2,11,0.00
2013-12-14,13.0,12.1,12.0,11.0,11.0,11.0,93,93,93,30.04,29.89,7,2,7,0.00
2013-12-15,26.0,18.9,12.0,24.0,17.2,11.0,94,93,86,29.90,29.13,9,2,10,0.00
2013-12-16,25.0,19.4,6.0,21.0,10.7,4.0,91,66,39,29.92,29.40,18,5,20,0.00
2013-12-17,14.0,6.8,-5.0,11.0,3.6,-6.0,93,83,55,30.01,29.67,6,0,7,0.00
2013-12-18,34.0,22.2,10.0,23.0,17.8,11.0,93,82,58,29.73,29.53,10,2,12,0.12
2013-12-19,40.0,30.8,23.0,26.0,23.3,18.0,88,72,52,29.75,29.57,16,5,16,0.11
2013-12-20,50.0,39.6,30.0,35.0,30.6,24.0,83,70,51,29.76,29.49,13,2,13,0.48
2013-12-21,56.0,46.9,40.0,47.0,40.9,33.0,97,79,62,29.56,29.43,12,3,12,0.04
2013-12-22,48.0,43.5,32.0,47.0,42.5,31.0,97,96,95,29.55,29.46,6,2,6,0.00
2013-12-23,31.0,29.5,29.0,29.0,28.3,28.0,95,94,94,29.76,29.64,6,0,6,0.04
2013-12-24,34.0,27.1,19.0,26.0,20.3,11.0,94,74,58,29.88,29.71,10,1,10,0.00
2013-12-25,22.0,14.5,7.0,14.0,5.1,0.0,82,63,40,30.23,29.88,10,1,15,0.00
2013-12-26,25.0,18.5,12.0,24.0,15.9,4.0,94,88,65,30.19,29.76,7,1,7,0.00
2013-12-27,32.0,24.7,18.0,23.0,19.8,16.0,93,80,62,29.92,29.83,14,4,14,0.04
2013-12-28,45.0,31.6,21.0,31.0,25.2,18.0,93,78,53,29.86,29.58,18,4,18,0.12
2013-12-29,39.0,34.5,29.0,33.0,30.1,26.0,95,83,72,29.67,29.11,9,2,12,0.68
2013-12-30,40.0,28.6,10.0,35.0,21.6,4.0,95,75,47,29.88,29.17,19,3,19,0.01
2013-12-31,21.0,12.9,3.0,16.0,5.1,-6.0,87,67,46,29.89,29.71,12,2,12,0.00
2014-1-1,24.0,16.3,12.0,11.0,7.9,4.0,79,65,47,30.08,29.84,20,3,22,0.00
2014-1-2,15.0,5.8,-4.0,14.0,6.3,0.0,93,91,74,30.05,29.65,11,1,11,0.00